createdAt,value
2019-01-11T00:00:25.171Z,8.77
2019-01-11T00:02:51.545Z,7.57
2019-01-11T00:05:19.685Z,8.30
2019-01-11T00:07:46.162Z,7.07
2019-01-11T00:10:12.963Z,7.77
2019-01-11T00:12:39.439Z,7.27
2019-01-11T00:15:06.262Z,7.53
2019-01-11T00:17:33.067Z,8.10
2019-01-11T00:20:03.458Z,8.30
2019-01-11T00:22:28.392Z,8.30
2019-01-11T00:24:55.012Z,9.00
2019-01-11T00:27:21.632Z,8.10
2019-01-11T00:29:48.138Z,8.67
2019-01-11T00:32:14.656Z,8.67
2019-01-11T00:34:41.255Z,8.70
2019-01-11T00:37:07.802Z,8.70
2019-01-11T00:39:34.235Z,8.77
2019-01-11T00:42:00.652Z,9.63
2019-01-11T00:44:27.143Z,9.73
2019-01-11T00:46:53.690Z,10.93
2019-01-11T00:49:20.181Z,11.17
2019-01-11T00:51:46.836Z,12.93
2019-01-11T00:54:13.429Z,12.73
2019-01-11T00:56:39.974Z,14.53
2019-01-11T00:59:06.450Z,13.87
2019-01-11T01:01:33.140Z,13.87
2019-01-11T01:03:59.670Z,13.93
2019-01-11T01:06:26.267Z,13.70
2019-01-11T01:08:52.937Z,15.10
2019-01-11T01:11:19.625Z,15.90
2019-01-11T01:13:46.243Z,19.60
2019-01-11T01:16:12.947Z,21.97
2019-01-11T01:18:39.795Z,20.13
2019-01-11T01:21:06.395Z,23.23
2019-01-11T01:23:33.129Z,23.67
2019-01-11T01:25:59.745Z,25.23
2019-01-11T01:28:26.370Z,22.47
2019-01-11T01:30:52.997Z,22.27
2019-01-11T01:33:19.508Z,23.10
2019-01-11T01:35:46.127Z,23.00
2019-01-11T01:38:12.760Z,21.40
2019-01-11T01:40:39.364Z,22.43
2019-01-11T01:43:05.990Z,23.47
2019-01-11T01:45:33.535Z,23.07
2019-01-11T01:48:00.173Z,24.17
2019-01-11T01:50:26.649Z,25.13
2019-01-11T01:52:53.166Z,22.93
2019-01-11T01:55:19.672Z,23.97
2019-01-11T01:57:46.310Z,24.40
2019-01-11T02:00:16.314Z,24.57
2019-01-11T02:02:43.080Z,24.23
2019-01-11T02:05:09.770Z,25.50
2019-01-11T02:07:36.396Z,25.40
2019-01-11T02:10:06.247Z,25.47
2019-01-11T02:12:32.632Z,25.97
2019-01-11T02:14:59.149Z,25.40
2019-01-11T02:17:25.658Z,26.43
2019-01-11T02:19:52.106Z,28.10
2019-01-11T02:22:18.715Z,27.90
2019-01-11T02:24:45.345Z,26.27
2019-01-11T02:27:11.922Z,27.00
2019-01-11T02:29:38.562Z,25.00
2019-01-11T02:32:05.186Z,28.20
2019-01-11T02:34:31.841Z,26.10
2019-01-11T02:36:58.433Z,22.07
2019-01-11T02:39:24.840Z,28.83
2019-01-11T02:41:51.374Z,26.00
2019-01-11T02:44:17.769Z,26.07
2019-01-11T02:46:44.377Z,28.10
2019-01-11T02:49:10.917Z,29.00
2019-01-11T02:51:37.534Z,29.43
2019-01-11T02:54:04.295Z,30.17
2019-01-11T02:56:30.889Z,30.73
2019-01-11T02:58:57.567Z,32.23
2019-01-11T03:01:24.202Z,32.00
2019-01-11T03:03:50.806Z,33.33
2019-01-11T03:06:17.427Z,33.70
2019-01-11T03:08:44.021Z,33.47
2019-01-11T03:11:12.689Z,32.80
2019-01-11T03:13:39.283Z,34.27
2019-01-11T03:16:05.981Z,33.17
2019-01-11T03:18:32.616Z,35.00
2019-01-11T03:21:00.251Z,32.57
2019-01-11T03:23:26.844Z,30.03
2019-01-11T03:25:53.486Z,32.37
2019-01-11T03:28:20.134Z,33.87
2019-01-11T03:30:46.782Z,35.17
2019-01-11T03:33:13.280Z,35.40
2019-01-11T03:35:40.027Z,33.50
2019-01-11T03:38:06.738Z,34.13
2019-01-11T03:40:33.362Z,35.93
2019-01-11T03:42:59.959Z,34.10
2019-01-11T03:45:26.601Z,35.57
2019-01-11T03:47:53.208Z,33.77
2019-01-11T03:50:20.446Z,34.53
2019-01-11T03:52:47.351Z,34.40
2019-01-11T03:55:14.452Z,31.40
2019-01-11T03:57:42.024Z,31.93
2019-01-11T04:00:12.107Z,31.30
2019-01-11T04:02:38.738Z,29.10
2019-01-11T04:05:09.969Z,29.97
2019-01-11T04:07:36.432Z,28.53
2019-01-11T04:10:06.691Z,26.37
2019-01-11T04:12:33.210Z,27.87
2019-01-11T04:14:59.723Z,27.93
2019-01-11T04:17:26.348Z,26.23
2019-01-11T04:19:52.879Z,24.80
2019-01-11T04:22:21.289Z,24.87
2019-01-11T04:24:55.679Z,23.60
2019-01-11T04:27:22.158Z,25.70
2019-01-11T04:29:48.616Z,24.07
2019-01-11T04:32:15.200Z,24.87
2019-01-11T04:34:41.919Z,25.63
2019-01-11T04:37:08.526Z,24.43
2019-01-11T04:39:35.024Z,25.47
2019-01-11T04:42:01.529Z,25.23
2019-01-11T04:44:28.132Z,26.20
2019-01-11T04:46:54.731Z,26.13
2019-01-11T04:49:21.496Z,26.30
2019-01-11T04:51:48.030Z,25.63
2019-01-11T04:54:14.648Z,26.47
2019-01-11T04:56:41.274Z,26.67
2019-01-11T04:59:07.805Z,27.33
2019-01-11T05:01:35.203Z,27.00
2019-01-11T05:04:02.177Z,27.13
2019-01-11T05:06:28.761Z,25.97
2019-01-11T05:08:55.379Z,27.37
2019-01-11T05:11:21.997Z,27.10
2019-01-11T05:13:49.910Z,25.90
2019-01-11T05:16:16.837Z,27.47
2019-01-11T05:18:43.333Z,26.50
2019-01-11T05:21:09.928Z,27.63
2019-01-11T05:23:36.383Z,26.07
2019-01-11T05:26:03.216Z,26.30
2019-01-11T05:28:29.720Z,26.67
2019-01-11T05:30:57.137Z,28.03
2019-01-11T05:33:23.720Z,25.93
2019-01-11T05:35:50.427Z,27.60
2019-01-11T05:38:16.812Z,28.47
2019-01-11T05:40:43.463Z,28.00
2019-01-11T05:43:10.031Z,28.83
2019-01-11T05:45:36.548Z,27.30
2019-01-11T05:48:03.216Z,29.80
2019-01-11T05:50:29.871Z,28.87
2019-01-11T05:52:57.702Z,30.57
2019-01-11T05:55:26.126Z,31.47
2019-01-11T05:58:10.982Z,30.43
2019-01-11T06:00:37.716Z,30.73
2019-01-11T06:03:04.422Z,32.37
2019-01-11T06:05:31.045Z,31.77
2019-01-11T06:07:59.553Z,30.67
2019-01-11T06:10:26.147Z,33.63
2019-01-11T06:12:52.734Z,31.73
2019-01-11T06:15:19.307Z,36.07
2019-01-11T06:17:45.937Z,35.23
2019-01-11T06:20:14.122Z,34.80
2019-01-11T06:22:41.909Z,34.93
2019-01-11T06:25:08.405Z,34.60
2019-01-11T06:27:35.147Z,33.37
2019-01-11T06:30:03.003Z,33.73
2019-01-11T06:32:29.427Z,34.93
2019-01-11T06:34:56.011Z,33.43
2019-01-11T06:37:22.529Z,33.17
2019-01-11T06:39:49.074Z,33.73
2019-01-11T06:42:17.618Z,32.90
2019-01-11T06:44:44.021Z,33.90
2019-01-11T06:47:12.247Z,34.10
2019-01-11T06:49:38.743Z,34.30
2019-01-11T06:52:05.467Z,34.20
2019-01-11T06:54:32.061Z,34.90
2019-01-11T06:56:58.753Z,34.23
2019-01-11T06:59:25.369Z,33.87
2019-01-11T07:01:51.897Z,35.03
2019-01-11T07:04:18.487Z,35.77
2019-01-11T07:06:45.407Z,35.73
2019-01-11T07:09:12.024Z,32.67
2019-01-11T07:11:38.656Z,31.37
2019-01-11T07:14:05.261Z,33.00
2019-01-11T07:16:31.774Z,32.73
2019-01-11T07:18:58.404Z,33.87
2019-01-11T07:21:25.071Z,32.57
2019-01-11T07:23:51.638Z,34.20
2019-01-11T07:26:18.201Z,34.17
2019-01-11T07:28:46.639Z,33.23
2019-01-11T07:31:13.260Z,31.90
2019-01-11T07:33:39.912Z,34.37
2019-01-11T07:36:14.125Z,32.70
2019-01-11T07:38:40.537Z,32.70
2019-01-11T07:41:07.130Z,32.37
2019-01-11T07:43:33.547Z,31.00
2019-01-11T07:46:02.075Z,30.23
2019-01-11T07:48:28.494Z,31.83
2019-01-11T07:50:55.763Z,31.60
2019-01-11T07:53:23.836Z,30.83
2019-01-11T07:55:50.363Z,30.10
2019-01-11T07:58:16.753Z,27.97
2019-01-11T08:00:43.232Z,30.27
2019-01-11T08:03:09.982Z,28.83
2019-01-11T08:05:36.448Z,29.07
2019-01-11T08:08:03.323Z,27.43
2019-01-11T08:10:29.718Z,28.30
2019-01-11T08:12:56.234Z,28.67
2019-01-11T08:15:22.875Z,28.20
2019-01-11T08:17:49.315Z,28.23
2019-01-11T08:20:16.008Z,28.47
2019-01-11T08:22:43.416Z,29.50
2019-01-11T08:25:12.197Z,29.30
2019-01-11T08:27:38.789Z,29.03
2019-01-11T08:30:11.503Z,28.90
2019-01-11T08:32:38.352Z,30.17
2019-01-11T08:35:08.695Z,31.03
2019-01-11T08:37:35.679Z,31.10
2019-01-11T08:40:04.249Z,31.07
2019-01-11T08:42:30.649Z,29.73
2019-01-11T08:44:58.706Z,30.70
2019-01-11T08:47:25.091Z,32.20
2019-01-11T08:49:51.596Z,30.17
2019-01-11T08:52:17.980Z,30.40
2019-01-11T08:54:44.376Z,29.93
2019-01-11T08:57:10.870Z,31.60
2019-01-11T08:59:37.712Z,29.57
2019-01-11T09:02:05.689Z,29.03
2019-01-11T09:04:32.326Z,29.63
2019-01-11T09:06:58.823Z,30.00
2019-01-11T09:09:25.518Z,30.70
2019-01-11T09:11:52.120Z,29.70
2019-01-11T09:14:21.526Z,27.50
2019-01-11T09:16:47.875Z,30.53
2019-01-11T09:19:14.621Z,30.03
2019-01-11T09:21:41.777Z,28.37
2019-01-11T09:24:08.714Z,30.50
2019-01-11T09:26:35.195Z,29.83
2019-01-11T09:29:02.465Z,28.43
2019-01-11T09:31:29.325Z,29.77
2019-01-11T09:33:55.743Z,30.40
2019-01-11T09:36:22.421Z,29.60
2019-01-11T09:38:48.971Z,30.37
2019-01-11T09:41:15.612Z,30.90
2019-01-11T09:43:42.348Z,31.47
2019-01-11T09:46:08.962Z,30.77
2019-01-11T09:48:35.802Z,31.47
2019-01-11T09:51:02.430Z,32.07
2019-01-11T09:53:29.025Z,31.07
2019-01-11T09:55:55.735Z,33.70
2019-01-11T09:58:22.204Z,32.63
2019-01-11T10:00:49.040Z,29.60
2019-01-11T10:03:15.790Z,31.00
2019-01-11T10:05:42.400Z,30.80
2019-01-11T10:08:09.078Z,29.27
2019-01-11T10:10:35.563Z,30.13
2019-01-11T10:13:02.048Z,30.63
2019-01-11T10:15:28.683Z,29.83
2019-01-11T10:17:55.179Z,30.80
2019-01-11T10:20:21.830Z,30.83
2019-01-11T10:22:48.430Z,31.80
2019-01-11T10:25:15.192Z,31.03
2019-01-11T10:27:41.632Z,32.23
2019-01-11T10:30:18.443Z,33.00
2019-01-11T10:32:45.080Z,29.90
2019-01-11T10:35:11.978Z,33.33
2019-01-11T10:37:38.619Z,33.37
2019-01-11T10:40:09.927Z,28.90
2019-01-11T10:42:36.540Z,32.77
2019-01-11T10:45:06.752Z,34.23
2019-01-11T10:47:33.420Z,33.93
2019-01-11T10:50:00.417Z,34.67
2019-01-11T10:52:26.927Z,35.63
2019-01-11T10:54:53.571Z,34.53
2019-01-11T10:57:20.243Z,33.47
2019-01-11T10:59:46.747Z,35.00
2019-01-11T11:02:13.335Z,37.10
2019-01-11T11:04:39.960Z,34.20
2019-01-11T11:07:09.012Z,35.23
2019-01-11T11:09:35.533Z,36.47
2019-01-11T11:12:02.227Z,37.20
2019-01-11T11:14:28.900Z,36.43
2019-01-11T11:16:57.344Z,36.57
2019-01-11T11:19:23.938Z,34.83
2019-01-11T11:21:50.472Z,35.93
2019-01-11T11:24:17.977Z,36.67
2019-01-11T11:26:44.527Z,37.30
2019-01-11T11:29:11.159Z,36.87
2019-01-11T11:31:37.756Z,35.43
2019-01-11T11:34:04.336Z,37.43
2019-01-11T11:36:30.734Z,36.77
2019-01-11T11:38:57.377Z,36.80
2019-01-11T11:41:23.862Z,37.57
2019-01-11T11:43:50.343Z,38.50
2019-01-11T11:46:16.959Z,39.40
2019-01-11T11:48:43.474Z,37.87
2019-01-11T11:51:10.034Z,35.80
2019-01-11T11:53:36.535Z,36.37
2019-01-11T11:56:03.477Z,33.90
2019-01-11T11:58:30.219Z,36.53
2019-01-11T12:00:56.912Z,35.33
2019-01-11T12:03:23.425Z,36.03
2019-01-11T12:05:50.156Z,32.83
2019-01-11T12:08:16.676Z,34.40
2019-01-11T12:10:43.494Z,34.00
2019-01-11T12:13:10.179Z,32.63
2019-01-11T12:15:37.166Z,31.83
2019-01-11T12:18:03.891Z,32.87
2019-01-11T12:20:32.621Z,32.30
2019-01-11T12:22:59.227Z,32.30
2019-01-11T12:25:25.734Z,32.33
2019-01-11T12:27:52.360Z,32.50
2019-01-11T12:30:18.932Z,31.77
2019-01-11T12:32:45.593Z,33.37
2019-01-11T12:35:12.188Z,31.47
2019-01-11T12:37:38.794Z,31.67
2019-01-11T12:40:08.495Z,31.57
2019-01-11T12:42:35.034Z,32.03
2019-01-11T12:45:01.653Z,32.03
2019-01-11T12:47:28.274Z,33.13
2019-01-11T12:49:54.840Z,32.23
2019-01-11T12:52:21.508Z,33.67
2019-01-11T12:54:48.025Z,32.50
2019-01-11T12:57:14.555Z,33.20
2019-01-11T12:59:41.124Z,34.60
2019-01-11T13:02:07.757Z,39.77
2019-01-11T13:04:34.347Z,41.97
2019-01-11T13:07:00.992Z,43.17
2019-01-11T13:09:27.653Z,42.90
2019-01-11T13:11:54.313Z,45.97
2019-01-11T13:14:20.691Z,42.80
2019-01-11T13:16:47.335Z,37.27
2019-01-11T13:19:13.980Z,33.93
2019-01-11T13:21:41.005Z,29.30
2019-01-11T13:24:07.571Z,25.30
2019-01-11T13:26:34.185Z,23.67
2019-01-11T13:29:00.624Z,19.43
2019-01-11T13:31:27.173Z,15.60
2019-01-11T13:33:53.892Z,14.90
2019-01-11T13:36:22.271Z,14.53
2019-01-11T13:38:48.796Z,13.40
2019-01-11T13:41:15.285Z,12.53
2019-01-11T13:43:41.830Z,14.00
2019-01-11T13:46:08.352Z,14.43
2019-01-11T13:48:34.910Z,14.20
2019-01-11T13:51:01.458Z,14.23
2019-01-11T13:53:28.062Z,15.07
2019-01-11T13:55:54.736Z,14.53
2019-01-11T13:58:21.293Z,13.80
2019-01-11T14:00:47.926Z,12.90
2019-01-11T14:03:14.513Z,12.90
2019-01-11T14:05:41.108Z,11.97
2019-01-11T14:08:08.686Z,11.47
2019-01-11T14:10:35.267Z,12.00
2019-01-11T14:13:01.998Z,11.60
2019-01-11T14:15:28.493Z,9.87
2019-01-11T14:17:54.961Z,9.50
2019-01-11T14:20:21.467Z,9.27
2019-01-11T14:22:47.987Z,10.17
2019-01-11T14:25:14.579Z,9.20
2019-01-11T14:27:41.246Z,11.03
2019-01-11T14:30:11.347Z,11.33
2019-01-11T14:32:37.908Z,11.07
2019-01-11T14:35:06.493Z,11.40
2019-01-11T14:37:33.205Z,11.53
2019-01-11T14:39:59.673Z,11.83
2019-01-11T14:42:26.148Z,11.67
2019-01-11T14:44:52.513Z,11.13
2019-01-11T14:47:20.918Z,11.57
2019-01-11T14:49:47.328Z,10.93
2019-01-11T14:52:20.136Z,11.43
2019-01-11T14:54:42.329Z,10.17
2019-01-11T14:57:08.696Z,9.33
2019-01-11T14:59:35.321Z,9.00
2019-01-11T15:02:01.922Z,11.07
2019-01-11T15:04:28.320Z,10.73
2019-01-11T15:06:54.801Z,10.67
2019-01-11T15:09:21.232Z,10.03
2019-01-11T15:11:48.699Z,10.43
2019-01-11T15:14:15.096Z,10.00
2019-01-11T15:16:41.504Z,10.47
2019-01-11T15:19:13.884Z,10.03
2019-01-11T15:21:36.590Z,9.80
2019-01-11T15:24:03.182Z,8.97
2019-01-11T15:26:29.670Z,7.90
2019-01-11T15:28:56.186Z,9.40
2019-01-11T15:31:22.659Z,9.13
2019-01-11T15:33:49.184Z,8.87
2019-01-11T15:36:15.682Z,9.53
2019-01-11T15:38:42.246Z,10.00
2019-01-11T15:41:08.859Z,8.27
2019-01-11T15:43:35.366Z,8.87
2019-01-11T15:46:02.691Z,8.30
2019-01-11T15:48:41.963Z,8.20
2019-01-11T15:51:08.539Z,7.93
2019-01-11T15:53:36.324Z,8.13
2019-01-11T15:56:04.110Z,8.07
2019-01-11T15:58:30.674Z,9.00
2019-01-11T16:00:57.215Z,9.00
2019-01-11T16:03:26.304Z,9.97
2019-01-11T16:06:16.476Z,8.70
2019-01-11T16:09:01.531Z,9.00
2019-01-11T16:11:46.798Z,8.57
2019-01-11T16:14:23.852Z,7.90
2019-01-11T16:16:50.344Z,7.70
2019-01-11T16:19:16.860Z,7.80
2019-01-11T16:21:43.431Z,7.50
2019-01-11T16:24:10.066Z,6.50
2019-01-11T16:26:36.758Z,6.90
2019-01-11T16:29:03.764Z,6.50
2019-01-11T16:31:30.285Z,6.97
2019-01-11T16:33:56.736Z,6.53
2019-01-11T16:36:23.217Z,6.60
2019-01-11T16:38:49.673Z,6.17
2019-01-11T16:41:16.186Z,7.70
2019-01-11T16:43:42.649Z,7.10
2019-01-11T16:46:09.118Z,7.07
2019-01-11T16:48:35.644Z,8.20
2019-01-11T16:51:02.197Z,7.80
2019-01-11T16:53:28.720Z,8.23
2019-01-11T16:55:55.098Z,8.43
2019-01-11T16:58:21.901Z,8.63
2019-01-11T17:00:48.412Z,8.00
2019-01-11T17:03:15.022Z,9.17
2019-01-11T17:05:41.690Z,8.53
2019-01-11T17:08:08.064Z,8.87
2019-01-11T17:10:34.700Z,9.60
2019-01-11T17:13:01.049Z,9.13
2019-01-11T17:15:28.602Z,9.90
2019-01-11T17:17:55.105Z,8.77
2019-01-11T17:20:21.709Z,11.20
2019-01-11T17:22:53.021Z,10.03
2019-01-11T17:25:17.763Z,9.93
2019-01-11T17:27:44.340Z,11.00
2019-01-11T17:30:13.829Z,10.90
2019-01-11T17:32:40.462Z,11.53
2019-01-11T17:35:07.129Z,10.77
2019-01-11T17:37:33.546Z,11.67
2019-01-11T17:40:00.607Z,11.57
2019-01-11T17:42:27.048Z,12.63
2019-01-11T17:44:53.557Z,11.27
2019-01-11T17:47:20.031Z,11.77
2019-01-11T17:49:46.829Z,10.77
2019-01-11T17:52:13.334Z,11.10
2019-01-11T17:54:39.964Z,10.90
2019-01-11T17:57:06.443Z,10.73
2019-01-11T17:59:33.596Z,11.33
2019-01-11T18:02:00.121Z,11.27
2019-01-11T18:04:26.654Z,11.27
2019-01-11T18:06:53.117Z,11.63
2019-01-11T18:09:20.160Z,11.30
2019-01-11T18:11:46.501Z,11.93
2019-01-11T18:14:13.352Z,11.67
2019-01-11T18:16:39.932Z,10.90
2019-01-11T18:19:06.448Z,11.60
2019-01-11T18:21:34.354Z,11.40
2019-01-11T18:24:00.887Z,11.27
2019-01-11T18:26:27.491Z,11.77
2019-01-11T18:28:54.391Z,12.50
2019-01-11T18:31:21.030Z,11.67
2019-01-11T18:33:47.518Z,11.87
2019-01-11T18:36:14.149Z,11.23
2019-01-11T18:38:40.732Z,11.73
2019-01-11T18:41:07.254Z,10.63
2019-01-11T18:43:33.737Z,11.00
2019-01-11T18:46:00.259Z,11.50
2019-01-11T18:48:26.756Z,10.87
2019-01-11T18:50:53.292Z,10.60
2019-01-11T18:53:19.668Z,11.67
2019-01-11T18:55:47.019Z,11.53
2019-01-11T18:58:13.480Z,11.70
2019-01-11T19:00:40.380Z,11.87
2019-01-11T19:03:07.193Z,12.33
2019-01-11T19:05:33.832Z,11.00
2019-01-11T19:08:00.284Z,11.10
2019-01-11T19:10:26.736Z,11.67
2019-01-11T19:12:53.355Z,12.80
2019-01-11T19:15:23.512Z,10.63
2019-01-11T19:17:50.115Z,11.50
2019-01-11T19:20:19.524Z,12.07
2019-01-11T19:22:46.196Z,11.07
2019-01-11T19:25:12.992Z,12.13
2019-01-11T19:27:39.763Z,13.00
2019-01-11T19:30:13.429Z,13.20
2019-01-11T19:32:40.329Z,14.40
2019-01-11T19:35:06.919Z,14.87
2019-01-11T19:37:33.486Z,15.53
2019-01-11T19:39:59.955Z,14.67
2019-01-11T19:42:26.473Z,16.60
2019-01-11T19:44:52.969Z,16.70
2019-01-11T19:47:19.596Z,16.57
2019-01-11T19:49:46.082Z,13.97
2019-01-11T19:52:12.593Z,14.10
2019-01-11T19:54:38.995Z,13.03
2019-01-11T19:57:05.638Z,12.70
2019-01-11T19:59:32.098Z,12.10
2019-01-11T20:01:58.638Z,13.13
2019-01-11T20:04:25.167Z,13.33
2019-01-11T20:06:51.735Z,13.83
2019-01-11T20:09:18.539Z,13.33
2019-01-11T20:11:45.197Z,13.47
2019-01-11T20:14:12.649Z,13.23
2019-01-11T20:16:39.375Z,13.97
2019-01-11T20:19:05.943Z,14.43
2019-01-11T20:21:33.398Z,13.90
2019-01-11T20:23:59.853Z,13.97
2019-01-11T20:26:26.481Z,13.73
2019-01-11T20:28:53.739Z,14.47
2019-01-11T20:31:21.081Z,14.03
2019-01-11T20:33:47.772Z,13.50
2019-01-11T20:36:14.516Z,13.87
2019-01-11T20:38:41.221Z,13.20
2019-01-11T20:41:07.808Z,11.97
2019-01-11T20:43:34.402Z,12.03
2019-01-11T20:46:03.423Z,12.13
2019-01-11T20:48:29.306Z,11.13
2019-01-11T20:50:55.984Z,12.23
2019-01-11T20:53:22.536Z,12.87
2019-01-11T20:55:49.012Z,11.83
2019-01-11T20:58:15.635Z,11.40
2019-01-11T21:00:42.373Z,12.93
2019-01-11T21:03:08.989Z,12.93
2019-01-11T21:05:35.675Z,13.97
2019-01-11T21:08:03.073Z,15.10
2019-01-11T21:10:29.729Z,16.77
2019-01-11T21:12:56.428Z,16.97
2019-01-11T21:15:23.256Z,18.37
2019-01-11T21:17:50.191Z,18.70
2019-01-11T21:20:18.080Z,17.10
2019-01-11T21:22:44.758Z,16.03
2019-01-11T21:25:13.382Z,16.67
2019-01-11T21:27:40.212Z,16.33
2019-01-11T21:30:15.567Z,14.33
2019-01-11T21:32:42.846Z,13.47
2019-01-11T21:35:09.457Z,13.97
2019-01-11T21:37:35.977Z,13.60
2019-01-11T21:40:04.975Z,13.20
2019-01-11T21:42:31.628Z,12.90
2019-01-11T21:44:58.412Z,12.07
2019-01-11T21:47:24.900Z,12.00
2019-01-11T21:49:51.346Z,13.50
2019-01-11T21:52:18.012Z,12.80
2019-01-11T21:54:44.625Z,12.73
2019-01-11T21:57:12.704Z,12.47
2019-01-11T21:59:41.013Z,12.90
2019-01-11T22:02:07.676Z,12.30
2019-01-11T22:04:34.273Z,12.40
2019-01-11T22:07:00.841Z,12.37
2019-01-11T22:09:27.540Z,11.77
2019-01-11T22:11:54.179Z,11.47
2019-01-11T22:14:22.182Z,11.87
2019-01-11T22:16:48.869Z,11.33
2019-01-11T22:19:15.381Z,10.37
2019-01-11T22:21:42.021Z,11.47
2019-01-11T22:24:08.638Z,11.27
2019-01-11T22:26:35.261Z,10.13
2019-01-11T22:29:01.842Z,9.77
2019-01-11T22:31:28.467Z,9.47
2019-01-11T22:33:55.061Z,10.30
2019-01-11T22:36:21.431Z,9.33
2019-01-11T22:38:48.396Z,10.50
2019-01-11T22:41:15.288Z,10.50
2019-01-11T22:43:42.245Z,11.40
2019-01-11T22:46:09.025Z,10.10
2019-01-11T22:48:37.686Z,10.37
2019-01-11T22:51:04.571Z,11.10
2019-01-11T22:53:31.302Z,11.53
2019-01-11T22:55:57.808Z,12.33
2019-01-11T22:58:24.365Z,12.83
2019-01-11T23:01:03.672Z,12.40
2019-01-11T23:03:33.924Z,14.47
2019-01-11T23:06:10.041Z,15.27
2019-01-11T23:08:36.803Z,14.60
2019-01-11T23:11:13.067Z,15.93
2019-01-11T23:13:39.685Z,16.67
2019-01-11T23:16:08.392Z,17.53
2019-01-11T23:18:35.100Z,17.10
2019-01-11T23:21:02.113Z,18.50
2019-01-11T23:23:28.558Z,17.67
2019-01-11T23:25:55.164Z,17.73
2019-01-11T23:28:21.804Z,18.77
2019-01-11T23:30:49.919Z,18.97
2019-01-11T23:33:16.474Z,17.40
2019-01-11T23:35:43.079Z,18.77
2019-01-11T23:38:09.718Z,18.33
2019-01-11T23:40:36.380Z,19.40
2019-01-11T23:43:03.594Z,21.83
2019-01-11T23:45:30.213Z,19.57
2019-01-11T23:47:56.831Z,19.50
2019-01-11T23:50:23.484Z,17.63
2019-01-11T23:52:50.167Z,18.33
2019-01-11T23:55:16.778Z,17.70
2019-01-11T23:57:43.380Z,18.03
